Hodgeville, Canada
Current Conditions -  °F | °C
As of 6:00 AM on Wednesday 22 Oct 2014 (Local Time) from CYYN Reporting Station
Light Rain Light Rain  
Wind Chill: 39°   Ceiling: 400
Heat Index: 46°   Visibility: 9mi
Dew Point: 46°   Wind: 17mph
Humidity: 100%   Direction: 280°W
Pressure: 29.74"   Gusts: 23mph
Location:  50.12°N, 106.98°W
Report Text: CYYN 221200Z AUTO 28015G20KT 9SM -RA BKN004 OVC017 08/08 A2974 RMK SLP074 DENSITY ALT 2700FT
Loading
Personal Weather Stations






























Interactive Weather Map New forecast layout! Learn more

10-Day Weather Forecast

Advertisements
Track Severe Weather on mobile